Time;durP1;ratioP1;P1;durP2;ratioP2;P2;SDS_P1;SDS_P2;PMS_P1;PMS_P2;Temp;Humidity;BMP_temperature;BMP_pressure;BME280_temperature;BME280_humidity;BME280_pressure;Samples;Min_cycle;Max_cycle;Signal;HPM_P1;HPM_P2
2022/11/21 00:00:14;;;;;;;;;;;2.20;99.90;;;;;;5154494;27;19911;-38
2022/11/21 00:02:39;;;;;;;;;;;2.20;99.90;;;;;;5150179;27;19907;-37
2022/11/21 00:05:05;;;;;;;;;;;2.20;99.90;;;;;;5154197;27;20002;-39
2022/11/21 00:07:30;;;;;;;;;;;2.20;99.90;;;;;;5153275;27;20369;-38
2022/11/21 00:09:56;;;;;;;;;;;2.30;99.90;;;;;;5152255;27;20267;-39
2022/11/21 00:12:21;;;;;;;;;;;2.30;99.90;;;;;;5153342;27;19915;-40
2022/11/21 00:14:47;;;;;;;;;;;2.30;99.90;;;;;;5154669;27;19940;-38
2022/11/21 00:17:12;;;;;;;;;;;2.20;99.90;;;;;;5153337;27;19915;-38
2022/11/21 00:19:38;;;;;;;;;;;2.20;99.90;;;;;;5154766;27;20377;-38
2022/11/21 00:22:03;;;;;;;;;;;2.20;99.90;;;;;;5153510;27;19911;-39
2022/11/21 00:24:28;;;;;;;;;;;2.20;99.90;;;;;;5153445;27;19936;-38
2022/11/21 00:26:54;;;;;;;;;;;2.20;99.90;;;;;;5153947;27;19956;-40
2022/11/21 00:29:19;;;;;;;;;;;2.20;99.90;;;;;;5153234;27;19919;-39
2022/11/21 00:31:45;;;;;;;;;;;2.20;99.90;;;;;;5154196;27;20282;-38
2022/11/21 00:34:10;;;;;;;;;;;2.20;99.90;;;;;;5154431;27;19995;-39
2022/11/21 00:36:36;;;;;;;;;;;2.20;99.90;;;;;;5152897;27;19918;-38
2022/11/21 00:39:01;;;;;;;;;;;2.20;99.90;;;;;;5153460;27;20393;-39
2022/11/21 00:41:27;;;;;;;;;;;2.20;99.90;;;;;;5153948;27;19912;-39
2022/11/21 00:43:52;;;;;;;;;;;2.20;99.90;;;;;;5152535;27;19919;-38
2022/11/21 00:46:17;;;;;;;;;;;2.20;99.90;;;;;;5152592;27;19918;-38
2022/11/21 00:48:43;;;;;;;;;;;2.20;99.90;;;;;;5153225;27;19919;-39
2022/11/21 00:51:08;;;;;;;;;;;2.20;99.90;;;;;;5152560;27;20647;-39
2022/11/21 00:53:34;;;;;;;;;;;2.20;99.90;;;;;;5154173;27;20414;-39
2022/11/21 00:55:59;;;;;;;;;;;2.10;99.90;;;;;;5152708;27;19911;-40
2022/11/21 00:58:25;;;;;;;;;;;2.20;99.90;;;;;;5152767;27;19918;-38
2022/11/21 01:00:51;;;;;;;;;;;2.10;99.90;;;;;;5153907;27;20104;-39
2022/11/21 01:03:16;;;;;;;;;;;2.10;99.90;;;;;;5153780;27;20332;-37
2022/11/21 01:05:42;;;;;;;;;;;2.10;99.90;;;;;;5156881;27;20379;-38
2022/11/21 01:08:07;;;;;;;;;;;2.00;99.90;;;;;;5157636;27;19947;-40
2022/11/21 01:10:34;;;;;;;;;;;2.00;99.90;;;;;;5158034;27;19911;-39
2022/11/21 01:12:59;;;;;;;;;;;1.90;99.90;;;;;;5157327;27;19907;-39
2022/11/21 01:15:25;;;;;;;;;;;1.90;99.90;;;;;;5138566;27;20331;-39
2022/11/21 01:17:50;;;;;;;;;;;1.80;99.90;;;;;;5157905;27;19911;-38
2022/11/21 01:20:16;;;;;;;;;;;1.80;99.90;;;;;;5156834;27;19911;-39
2022/11/21 01:22:41;;;;;;;;;;;1.80;99.90;;;;;;5157026;27;19922;-40
2022/11/21 01:25:07;;;;;;;;;;;1.80;99.90;;;;;;5156970;27;19911;-38
2022/11/21 01:27:32;;;;;;;;;;;1.70;99.90;;;;;;5156620;27;19915;-39
2022/11/21 01:29:58;;;;;;;;;;;1.60;99.90;;;;;;5157127;27;19987;-39
2022/11/21 01:32:23;;;;;;;;;;;1.60;99.90;;;;;;5157450;27;19963;-39
2022/11/21 01:34:49;;;;;;;;;;;1.60;99.90;;;;;;5156346;27;19956;-38
2022/11/21 01:37:14;;;;;;;;;;;1.60;99.90;;;;;;5157614;27;19918;-38
2022/11/21 01:39:40;;;;;;;;;;;1.60;99.90;;;;;;5156539;27;19956;-39
2022/11/21 01:42:05;;;;;;;;;;;1.60;99.90;;;;;;5156461;27;19927;-38
2022/11/21 01:44:47;;;;;;;;;;;1.60;99.90;;;;;;5157111;27;20006;-39
2022/11/21 01:47:13;;;;;;;;;;;1.60;99.90;;;;;;5156234;27;20422;-39
2022/11/21 01:49:39;;;;;;;;;;;1.60;99.90;;;;;;5156912;27;20015;-37
2022/11/21 01:52:16;;;;;;;;;;;1.60;99.90;;;;;;5156279;27;19947;-37
2022/11/21 01:54:53;;;;;;;;;;;1.60;99.90;;;;;;5155686;27;19975;-39
2022/11/21 01:57:29;;;;;;;;;;;1.60;99.90;;;;;;5156090;27;22329;-39
2022/11/21 01:59:57;;;;;;;;;;;1.50;99.90;;;;;;5156757;27;19919;-39
2022/11/21 02:02:24;;;;;;;;;;;1.50;99.90;;;;;;5155757;27;19937;-37
2022/11/21 02:04:50;;;;;;;;;;;1.40;99.90;;;;;;5156559;27;19911;-39
2022/11/21 02:07:18;;;;;;;;;;;1.40;99.90;;;;;;5156126;27;19911;-38
2022/11/21 02:09:45;;;;;;;;;;;1.30;99.90;;;;;;5155866;27;20328;-38
2022/11/21 02:12:14;;;;;;;;;;;1.30;99.90;;;;;;5156191;27;19911;-38
2022/11/21 02:14:41;;;;;;;;;;;1.20;99.90;;;;;;5156276;27;19994;-39
2022/11/21 02:17:08;;;;;;;;;;;1.10;99.90;;;;;;5155248;27;19911;-39
2022/11/21 02:19:51;;;;;;;;;;;1.10;99.90;;;;;;5156440;27;19907;-38
2022/11/21 02:22:22;;;;;;;;;;;1.00;99.90;;;;;;5155804;27;20426;-38
2022/11/21 02:25:03;;;;;;;;;;;1.00;99.90;;;;;;5156534;27;19911;-38
2022/11/21 02:27:28;;;;;;;;;;;1.00;99.90;;;;;;5156508;27;19911;-39
2022/11/21 02:29:54;;;;;;;;;;;1.00;99.90;;;;;;5154967;27;20370;-39
2022/11/21 02:32:21;;;;;;;;;;;1.00;99.90;;;;;;5156325;27;19918;-39
2022/11/21 02:34:46;;;;;;;;;;;0.90;99.90;;;;;;5155228;27;19915;-38
2022/11/21 02:37:12;;;;;;;;;;;0.90;99.90;;;;;;5155477;27;20001;-38
2022/11/21 02:39:37;;;;;;;;;;;0.90;99.90;;;;;;5155888;27;19915;-41
2022/11/21 02:42:11;;;;;;;;;;;0.80;99.90;;;;;;5155820;27;19911;-39
2022/11/21 02:44:47;;;;;;;;;;;0.80;99.90;;;;;;5155806;27;19907;-39
2022/11/21 02:47:13;;;;;;;;;;;0.80;99.90;;;;;;5155719;27;19918;-39
2022/11/21 02:50:01;;;;;;;;;;;0.70;99.90;;;;;;5155691;27;20293;-39
2022/11/21 02:52:27;;;;;;;;;;;0.70;99.90;;;;;;5146639;27;20350;-38
2022/11/21 02:54:52;;;;;;;;;;;0.60;99.90;;;;;;5155740;27;19911;-39
2022/11/21 02:57:18;;;;;;;;;;;0.50;99.90;;;;;;5154051;27;20340;-38
2022/11/21 02:59:43;;;;;;;;;;;0.50;99.90;;;;;;5155438;27;19911;-38
2022/11/21 03:02:09;;;;;;;;;;;0.50;99.90;;;;;;5155029;27;20387;-39
2022/11/21 03:04:34;;;;;;;;;;;0.50;99.90;;;;;;5155030;27;19914;-39
2022/11/21 03:07:00;;;;;;;;;;;0.50;99.90;;;;;;5155752;27;19937;-39
2022/11/21 03:09:25;;;;;;;;;;;0.40;99.90;;;;;;5155846;27;19944;-38
2022/11/21 03:11:51;;;;;;;;;;;0.40;99.90;;;;;;5154000;27;19918;-38
2022/11/21 03:14:16;;;;;;;;;;;0.30;99.90;;;;;;5155593;27;20278;-38
2022/11/21 03:16:41;;;;;;;;;;;0.30;99.90;;;;;;5155580;27;19919;-40
2022/11/21 03:19:07;;;;;;;;;;;0.30;99.90;;;;;;5154897;27;19950;-38
2022/11/21 03:21:32;;;;;;;;;;;0.20;99.90;;;;;;5154811;27;19949;-38
2022/11/21 03:23:58;;;;;;;;;;;0.30;99.90;;;;;;5155133;27;19930;-39
2022/11/21 03:26:23;;;;;;;;;;;0.20;99.90;;;;;;5153743;27;20338;-37
2022/11/21 03:28:49;;;;;;;;;;;0.20;99.90;;;;;;5154015;27;19984;-38
2022/11/21 03:31:14;;;;;;;;;;;0.20;99.90;;;;;;5154840;27;19911;-38
2022/11/21 03:33:40;;;;;;;;;;;0.20;99.90;;;;;;5154473;27;19925;-39
2022/11/21 03:36:05;;;;;;;;;;;0.20;99.90;;;;;;5155074;27;19954;-38
2022/11/21 03:38:31;;;;;;;;;;;0.20;99.90;;;;;;5155485;27;20305;-38
2022/11/21 03:40:56;;;;;;;;;;;0.20;99.90;;;;;;5153600;27;20366;-38
2022/11/21 03:43:22;;;;;;;;;;;0.20;99.90;;;;;;5155130;27;19934;-37
2022/11/21 03:45:47;;;;;;;;;;;0.10;99.90;;;;;;5155125;27;19911;-40
2022/11/21 03:48:13;;;;;;;;;;;0.20;99.90;;;;;;5154249;27;19911;-38
2022/11/21 03:50:42;;;;;;;;;;;0.10;99.90;;;;;;5154339;27;19942;-38
2022/11/21 03:53:08;;;;;;;;;;;0.00;99.90;;;;;;5154714;27;20329;-39
2022/11/21 03:55:33;;;;;;;;;;;0.00;99.90;;;;;;5153894;27;19961;-40
2022/11/21 03:57:59;;;;;;;;;;;0.00;99.90;;;;;;5154264;27;19911;-39
2022/11/21 04:00:24;;;;;;;;;;;0.00;99.90;;;;;;5153669;27;19911;-38
2022/11/21 04:02:50;;;;;;;;;;;0.00;99.90;;;;;;5154024;27;20388;-38
2022/11/21 04:05:15;;;;;;;;;;;0.00;99.90;;;;;;5153797;27;19915;-38
2022/11/21 04:07:40;;;;;;;;;;;0.00;99.90;;;;;;5153676;27;19922;-39
2022/11/21 04:10:06;;;;;;;;;;;-0.10;99.90;;;;;;5154052;27;19919;-38
2022/11/21 04:12:31;;;;;;;;;;;0.00;99.90;;;;;;5154240;27;19911;-37
2022/11/21 04:14:57;;;;;;;;;;;0.00;99.90;;;;;;5153414;27;19925;-38
2022/11/21 04:17:22;;;;;;;;;;;-0.10;99.90;;;;;;5154628;27;19919;-38
2022/11/21 04:19:48;;;;;;;;;;;-0.10;99.90;;;;;;5153857;27;20296;-38
2022/11/21 04:22:13;;;;;;;;;;;-0.10;99.90;;;;;;5153568;27;19911;-40
2022/11/21 04:24:39;;;;;;;;;;;-0.20;99.90;;;;;;5154283;27;19937;-38
2022/11/21 04:27:04;;;;;;;;;;;-0.20;99.90;;;;;;5154067;27;19955;-39
2022/11/21 04:29:29;;;;;;;;;;;-0.20;99.90;;;;;;5153813;27;19923;-39
2022/11/21 04:31:55;;;;;;;;;;;-0.20;99.90;;;;;;5153532;27;20308;-39
2022/11/21 04:34:20;;;;;;;;;;;-0.20;99.90;;;;;;5153837;27;20031;-39
2022/11/21 04:36:46;;;;;;;;;;;-0.20;99.90;;;;;;5153039;27;19964;-38
2022/11/21 04:39:11;;;;;;;;;;;-0.20;99.90;;;;;;5152545;27;20001;-40
2022/11/21 04:41:37;;;;;;;;;;;-0.20;99.90;;;;;;5154070;27;20374;-39
2022/11/21 04:44:02;;;;;;;;;;;-0.20;99.90;;;;;;5153637;27;19955;-39
2022/11/21 04:46:28;;;;;;;;;;;-0.30;99.90;;;;;;5153736;27;19911;-39
2022/11/21 04:48:53;;;;;;;;;;;-0.30;99.90;;;;;;5153095;27;19926;-38
2022/11/21 04:51:18;;;;;;;;;;;-0.30;99.90;;;;;;5152724;27;20327;-38
2022/11/21 04:53:44;;;;;;;;;;;-0.30;99.90;;;;;;5153489;27;20001;-39
2022/11/21 04:56:09;;;;;;;;;;;-0.30;99.90;;;;;;5153253;27;19911;-40
2022/11/21 04:58:35;;;;;;;;;;;-0.30;99.90;;;;;;5152263;27;19911;-38
2022/11/21 05:01:07;;;;;;;;;;;-0.30;99.90;;;;;;5153607;27;20351;-38
2022/11/21 05:03:33;;;;;;;;;;;-0.40;99.90;;;;;;5153367;27;19959;-39
2022/11/21 05:05:58;;;;;;;;;;;-0.40;99.90;;;;;;5152509;27;19911;-39
2022/11/21 05:08:23;;;;;;;;;;;-0.50;99.90;;;;;;5153315;27;19911;-38
2022/11/21 05:13:33;;;;;;;;;;;-0.50;99.90;;;;;;5140560;27;19959;-39
2022/11/21 05:15:59;;;;;;;;;;;-0.60;99.90;;;;;;5153444;27;20010;-39
2022/11/21 05:18:24;;;;;;;;;;;-0.60;99.90;;;;;;5152987;27;19911;-38
2022/11/21 05:20:49;;;;;;;;;;;-0.60;99.90;;;;;;5153038;27;20396;-38
2022/11/21 05:23:15;;;;;;;;;;;-0.60;99.90;;;;;;5153369;27;19911;-39
2022/11/21 05:25:40;;;;;;;;;;;-0.60;99.90;;;;;;5152892;27;19987;-40
2022/11/21 05:28:06;;;;;;;;;;;-0.60;99.90;;;;;;5153384;27;19911;-40
2022/11/21 05:30:31;;;;;;;;;;;-0.70;99.90;;;;;;5153824;27;19922;-40
2022/11/21 05:32:57;;;;;;;;;;;-0.60;99.90;;;;;;5152489;27;20300;-38
2022/11/21 05:35:22;;;;;;;;;;;-0.60;99.90;;;;;;5153463;27;20326;-39
2022/11/21 05:37:53;;;;;;;;;;;-0.60;99.90;;;;;;5153015;27;19923;-38
2022/11/21 05:40:19;;;;;;;;;;;-0.60;99.90;;;;;;5151991;27;20272;-39
2022/11/21 05:45:28;;;;;;;;;;;-0.60;99.90;;;;;;5153973;27;19914;-40
2022/11/21 05:47:54;;;;;;;;;;;-0.60;99.90;;;;;;5152079;27;19911;-40
2022/11/21 05:50:19;;;;;;;;;;;-0.50;99.90;;;;;;5153281;27;20445;-40
2022/11/21 05:52:45;;;;;;;;;;;-0.50;99.90;;;;;;5156109;27;20319;-38
2022/11/21 05:55:10;;;;;;;;;;;-0.50;99.90;;;;;;5156318;27;19911;-39
2022/11/21 05:57:36;;;;;;;;;;;-0.60;99.90;;;;;;5155981;27;19925;-39
2022/11/21 06:00:02;;;;;;;;;;;-0.60;99.90;;;;;;5156006;27;19911;-40
2022/11/21 06:05:11;;;;;;;;;;;-0.70;99.90;;;;;;5156995;27;19971;-39
2022/11/21 06:07:36;;;;;;;;;;;-0.70;99.90;;;;;;5155552;27;19911;-39
2022/11/21 06:10:02;;;;;;;;;;;-0.80;99.90;;;;;;5156257;27;19923;-39
2022/11/21 06:12:28;;;;;;;;;;;-0.80;99.90;;;;;;5156863;27;19975;-40
2022/11/21 06:14:53;;;;;;;;;;;-0.80;99.90;;;;;;5155944;27;19919;-38
2022/11/21 06:17:18;;;;;;;;;;;-0.90;99.90;;;;;;5156524;27;19928;-38
2022/11/21 06:19:44;;;;;;;;;;;-0.90;99.90;;;;;;5156025;27;20407;-38
2022/11/21 06:22:10;;;;;;;;;;;-0.90;99.90;;;;;;5155916;27;19993;-38
2022/11/21 06:24:35;;;;;;;;;;;-0.90;99.90;;;;;;5156914;27;20027;-39
2022/11/21 06:27:01;;;;;;;;;;;-0.90;99.90;;;;;;5156322;27;19907;-39
2022/11/21 06:29:26;;;;;;;;;;;-0.90;99.90;;;;;;5155602;27;19919;-40
2022/11/21 06:31:54;;;;;;;;;;;-0.90;99.90;;;;;;5156206;27;20358;-39
2022/11/21 06:34:20;;;;;;;;;;;-0.80;99.90;;;;;;5156078;27;19907;-38
2022/11/21 06:36:45;;;;;;;;;;;-0.80;99.90;;;;;;5155223;27;19911;-39
2022/11/21 06:39:11;;;;;;;;;;;-0.80;99.90;;;;;;5155677;27;19995;-38
2022/11/21 06:41:36;;;;;;;;;;;-0.70;99.90;;;;;;5155532;27;19919;-39
2022/11/21 06:44:02;;;;;;;;;;;-0.80;99.90;;;;;;5155652;27;20285;-39
2022/11/21 06:46:27;;;;;;;;;;;-0.80;99.90;;;;;;5156043;27;19914;-39
2022/11/21 06:48:53;;;;;;;;;;;-0.80;99.90;;;;;;5155564;27;19976;-39
2022/11/21 06:51:19;;;;;;;;;;;-0.90;99.90;;;;;;5155053;27;19919;-38
2022/11/21 06:53:45;;;;;;;;;;;-0.80;99.90;;;;;;5155990;27;19911;-39
2022/11/21 06:56:11;;;;;;;;;;;-0.80;99.90;;;;;;5154421;27;20022;-38
2022/11/21 06:58:36;;;;;;;;;;;-0.80;99.90;;;;;;5154944;27;20029;-38
2022/11/21 07:01:03;;;;;;;;;;;-0.80;99.90;;;;;;5154636;27;19911;-38
2022/11/21 07:03:29;;;;;;;;;;;-0.80;99.90;;;;;;5154196;27;20040;-39
2022/11/21 07:05:58;;;;;;;;;;;-0.80;99.90;;;;;;5154570;27;19942;-39
2022/11/21 07:08:23;;;;;;;;;;;-0.80;99.90;;;;;;5155626;27;19930;-39
2022/11/21 07:10:49;;;;;;;;;;;-0.80;99.90;;;;;;5154530;27;20353;-39
2022/11/21 07:13:20;;;;;;;;;;;-0.80;99.90;;;;;;5155243;27;20358;-39
2022/11/21 07:15:47;;;;;;;;;;;-0.80;99.90;;;;;;5155410;27;19911;-39
2022/11/21 07:18:12;;;;;;;;;;;-0.70;99.90;;;;;;5155059;27;19907;-40
2022/11/21 07:20:39;;;;;;;;;;;-0.70;99.90;;;;;;5155480;27;20023;-40
2022/11/21 07:23:04;;;;;;;;;;;-0.70;99.90;;;;;;5154426;27;20369;-38
2022/11/21 07:25:30;;;;;;;;;;;-0.70;99.90;;;;;;5154104;27;19919;-39
2022/11/21 07:27:59;;;;;;;;;;;-0.80;99.90;;;;;;5155215;27;19911;-38
2022/11/21 07:30:25;;;;;;;;;;;-0.80;99.90;;;;;;5154594;27;19926;-39
2022/11/21 07:33:04;;;;;;;;;;;-0.80;99.90;;;;;;5153927;27;19915;-38
2022/11/21 07:35:30;;;;;;;;;;;-0.80;99.90;;;;;;5154689;27;19957;-39
2022/11/21 07:37:55;;;;;;;;;;;-0.80;99.90;;;;;;5155095;27;20006;-39
2022/11/21 07:40:21;;;;;;;;;;;-0.80;99.90;;;;;;5154135;27;20010;-40
2022/11/21 07:42:46;;;;;;;;;;;-0.70;99.90;;;;;;5154430;27;19911;-39
2022/11/21 07:45:12;;;;;;;;;;;-0.70;99.90;;;;;;5154928;27;19911;-39
2022/11/21 07:47:38;;;;;;;;;;;-0.70;99.90;;;;;;5153937;27;19973;-40
2022/11/21 07:50:04;;;;;;;;;;;-0.70;99.90;;;;;;5154633;27;20277;-39
2022/11/21 07:52:30;;;;;;;;;;;-0.70;99.90;;;;;;5152989;27;19953;-38
2022/11/21 07:54:55;;;;;;;;;;;-0.70;99.90;;;;;;5154289;27;19907;-39
2022/11/21 07:57:21;;;;;;;;;;;-0.60;99.90;;;;;;5154773;27;19911;-39
2022/11/21 07:59:46;;;;;;;;;;;-0.60;99.90;;;;;;5153904;27;19911;-38
2022/11/21 08:02:16;;;;;;;;;;;-0.50;99.90;;;;;;5154876;27;20275;-40
2022/11/21 08:04:42;;;;;;;;;;;-0.50;99.90;;;;;;5154368;27;19919;-38
2022/11/21 08:07:08;;;;;;;;;;;-0.50;99.90;;;;;;5153968;27;19960;-39
2022/11/21 08:09:34;;;;;;;;;;;-0.50;99.90;;;;;;5153873;27;19915;-39
2022/11/21 08:11:59;;;;;;;;;;;-0.40;99.90;;;;;;5154011;27;19911;-38
2022/11/21 08:14:25;;;;;;;;;;;-0.30;99.90;;;;;;5152929;27;19929;-39
2022/11/21 08:16:51;;;;;;;;;;;-0.30;99.90;;;;;;5154615;27;20368;-39
2022/11/21 08:19:17;;;;;;;;;;;-0.30;99.90;;;;;;5154689;27;19914;-39
2022/11/21 08:21:42;;;;;;;;;;;-0.30;99.90;;;;;;5153579;27;19907;-39
2022/11/21 08:24:12;;;;;;;;;;;-0.20;99.90;;;;;;5153877;27;19974;-38
2022/11/21 08:26:38;;;;;;;;;;;-0.20;99.90;;;;;;5153981;27;19911;-39
2022/11/21 08:29:03;;;;;;;;;;;-0.20;99.90;;;;;;5152910;27;19934;-39
2022/11/21 08:31:28;;;;;;;;;;;-0.10;99.90;;;;;;5153941;27;19967;-40
2022/11/21 08:33:54;;;;;;;;;;;-0.10;99.90;;;;;;5153713;27;19911;-39
2022/11/21 08:36:20;;;;;;;;;;;0.00;99.90;;;;;;5153149;27;19979;-39
2022/11/21 08:38:45;;;;;;;;;;;0.00;99.90;;;;;;5153478;27;20381;-40
2022/11/21 08:43:55;;;;;;;;;;;0.10;99.90;;;;;;5152971;27;19941;-38
2022/11/21 08:46:20;;;;;;;;;;;0.20;99.90;;;;;;5154361;27;19915;-39
2022/11/21 08:48:46;;;;;;;;;;;0.30;99.90;;;;;;5152828;27;19968;-40
2022/11/21 08:51:11;;;;;;;;;;;0.30;99.90;;;;;;5153665;27;19922;-39
2022/11/21 08:53:36;;;;;;;;;;;0.40;99.90;;;;;;5154103;27;19908;-38
2022/11/21 08:56:02;;;;;;;;;;;0.50;99.90;;;;;;5151742;27;20425;-39
2022/11/21 08:58:27;;;;;;;;;;;0.60;99.90;;;;;;5153759;27;19988;-39
2022/11/21 09:00:53;;;;;;;;;;;0.70;99.90;;;;;;5153690;27;19922;-39
2022/11/21 09:03:18;;;;;;;;;;;0.80;99.90;;;;;;5153422;27;19914;-39
2022/11/21 09:05:44;;;;;;;;;;;0.90;99.90;;;;;;5154321;27;19925;-39
2022/11/21 09:08:09;;;;;;;;;;;1.10;99.90;;;;;;5153469;27;20352;-38
2022/11/21 09:10:35;;;;;;;;;;;1.20;99.90;;;;;;5152498;27;20365;-40
2022/11/21 09:13:01;;;;;;;;;;;1.40;99.90;;;;;;5153384;27;19915;-39
2022/11/21 09:18:10;;;;;;;;;;;1.70;99.90;;;;;;5152212;27;19937;-39
2022/11/21 09:20:40;;;;;;;;;;;1.80;99.90;;;;;;5153347;27;19911;-40
2022/11/21 09:23:07;;;;;;;;;;;1.90;99.90;;;;;;5153961;27;20379;-42
2022/11/21 09:25:33;;;;;;;;;;;1.90;99.90;;;;;;5155415;27;19911;-39
2022/11/21 09:28:02;;;;;;;;;;;2.00;99.90;;;;;;5158208;27;20273;-38
2022/11/21 09:30:27;;;;;;;;;;;2.00;99.90;;;;;;5157591;27;19919;-39
2022/11/21 09:32:53;;;;;;;;;;;2.00;99.90;;;;;;5157873;27;19915;-40
2022/11/21 09:35:19;;;;;;;;;;;2.00;99.90;;;;;;5158220;27;19918;-40
2022/11/21 09:37:44;;;;;;;;;;;2.00;99.90;;;;;;5158623;27;19960;-40
2022/11/21 09:40:16;;;;;;;;;;;2.10;99.90;;;;;;5157201;27;19923;-39
2022/11/21 09:42:44;;;;;;;;;;;2.10;99.90;;;;;;5157887;27;20543;-40
2022/11/21 09:45:10;;;;;;;;;;;2.10;99.90;;;;;;5157832;27;19980;-39
2022/11/21 09:47:37;;;;;;;;;;;2.10;99.90;;;;;;5157309;27;20354;-40
2022/11/21 09:50:26;;;;;;;;;;;2.10;99.90;;;;;;5156160;27;19919;-39
2022/11/21 09:53:05;;;;;;;;;;;2.10;99.90;;;;;;5142721;27;20009;-40
2022/11/21 09:55:33;;;;;;;;;;;2.10;99.90;;;;;;5157346;27;19911;-39
2022/11/21 09:58:22;;;;;;;;;;;2.10;99.90;;;;;;5155219;27;19925;-40
2022/11/21 10:00:49;;;;;;;;;;;2.20;99.90;;;;;;5144644;27;19911;-39
2022/11/21 10:03:15;;;;;;;;;;;2.10;99.90;;;;;;5157743;27;19998;-40
2022/11/21 10:05:43;;;;;;;;;;;2.10;99.90;;;;;;5157672;27;19965;-40
2022/11/21 10:08:17;;;;;;;;;;;2.10;99.90;;;;;;5156856;27;19915;-39
2022/11/21 10:10:49;;;;;;;;;;;2.10;99.90;;;;;;5157249;27;19934;-39
2022/11/21 10:13:22;;;;;;;;;;;2.20;99.90;;;;;;5156359;27;19911;-40
2022/11/21 10:16:01;;;;;;;;;;;2.20;99.90;;;;;;5157143;27;20246;-39
2022/11/21 10:18:35;;;;;;;;;;;2.30;99.90;;;;;;5156890;27;19911;-38
2022/11/21 10:21:19;;;;;;;;;;;2.30;99.90;;;;;;5156776;27;19915;-39
2022/11/21 10:23:44;;;;;;;;;;;2.40;99.90;;;;;;5157772;27;20063;-42
2022/11/21 10:26:09;;;;;;;;;;;2.40;99.90;;;;;;5156287;27;19974;-40
2022/11/21 10:28:53;;;;;;;;;;;2.50;99.90;;;;;;5156339;27;19911;-39
2022/11/21 10:31:19;;;;;;;;;;;2.60;99.90;;;;;;5156491;27;20326;-39
2022/11/21 10:33:45;;;;;;;;;;;2.60;99.90;;;;;;5157384;27;19907;-39
2022/11/21 10:36:10;;;;;;;;;;;2.70;99.90;;;;;;5154998;27;19911;-39
2022/11/21 10:38:37;;;;;;;;;;;2.70;99.90;;;;;;5156626;27;19911;-39
2022/11/21 10:41:05;;;;;;;;;;;2.80;99.90;;;;;;5157360;27;19958;-39
2022/11/21 10:46:18;;;;;;;;;;;2.90;99.90;;;;;;5156817;27;19938;-40
2022/11/21 10:48:53;;;;;;;;;;;3.00;99.90;;;;;;5151592;27;20617;-39
2022/11/21 10:51:37;;;;;;;;;;;3.10;99.90;;;;;;5156819;27;19923;-41
2022/11/21 10:56:52;;;;;;;;;;;3.40;99.90;;;;;;5155839;27;19918;-39
2022/11/21 10:59:21;;;;;;;;;;;3.50;99.90;;;;;;5156898;27;19910;-40
2022/11/21 11:01:53;;;;;;;;;;;3.70;99.90;;;;;;5156456;27;19955;-40
2022/11/21 11:04:20;;;;;;;;;;;3.70;99.90;;;;;;5155829;27;20433;-38
2022/11/21 11:06:46;;;;;;;;;;;3.90;99.90;;;;;;5155227;27;19962;-39
2022/11/21 11:09:28;;;;;;;;;;;3.90;99.90;;;;;;5155670;27;19958;-39
2022/11/21 11:12:13;;;;;;;;;;;3.90;99.90;;;;;;5155565;27;19997;-38
2022/11/21 11:14:39;;;;;;;;;;;4.00;99.90;;;;;;5155613;27;19911;-38
2022/11/21 11:17:04;;;;;;;;;;;3.90;99.90;;;;;;5153534;27;19917;-39
2022/11/21 11:19:30;;;;;;;;;;;4.00;99.90;;;;;;5155599;27;19907;-40
2022/11/21 11:21:55;;;;;;;;;;;4.00;99.90;;;;;;5155477;27;19994;-40
2022/11/21 11:24:24;;;;;;;;;;;4.00;99.90;;;;;;5154820;27;19914;-39
2022/11/21 11:26:52;;;;;;;;;;;4.00;99.90;;;;;;5155251;27;19918;-40
2022/11/21 11:29:21;;;;;;;;;;;4.00;99.90;;;;;;5155373;27;19967;-45
2022/11/21 11:31:50;;;;;;;;;;;4.10;99.90;;;;;;5154251;27;19965;-39
2022/11/21 11:34:15;;;;;;;;;;;4.10;99.90;;;;;;5154228;27;19956;-39
2022/11/21 11:36:46;;;;;;;;;;;4.10;99.90;;;;;;5154619;27;19911;-39
2022/11/21 11:39:25;;;;;;;;;;;4.10;99.90;;;;;;5150402;27;20293;-39
2022/11/21 11:48:06;;;;;;;;;;;4.10;99.90;;;;;;5103350;27;20356;-39
2022/11/21 11:50:37;;;;;;;;;;;4.10;99.90;;;;;;5138757;27;19920;-39
2022/11/21 11:53:06;;;;;;;;;;;4.10;99.90;;;;;;5136551;27;20276;-40
2022/11/21 11:55:39;;;;;;;;;;;4.20;99.90;;;;;;5134408;27;19912;-40
2022/11/21 11:58:06;;;;;;;;;;;4.10;99.90;;;;;;5139191;27;19919;-39
2022/11/21 12:00:37;;;;;;;;;;;4.10;99.90;;;;;;5153931;27;20006;-38
2022/11/21 12:03:09;;;;;;;;;;;4.20;99.90;;;;;;5149508;27;19922;-39
2022/11/21 12:05:36;;;;;;;;;;;4.20;99.90;;;;;;5154000;27;19907;-39
2022/11/21 12:08:15;;;;;;;;;;;4.30;99.90;;;;;;5152823;27;19956;-38
2022/11/21 12:13:37;;;;;;;;;;;4.40;99.90;;;;;;5140955;27;20023;-40
2022/11/21 12:16:07;;;;;;;;;;;4.40;99.90;;;;;;5146380;27;19911;-38
2022/11/21 12:18:41;;;;;;;;;;;4.50;99.90;;;;;;5148867;27;20160;-39
2022/11/21 12:21:07;;;;;;;;;;;4.60;99.90;;;;;;5152459;27;19988;-39
2022/11/21 12:23:36;;;;;;;;;;;4.60;99.90;;;;;;5148281;27;20350;-39
2022/11/21 12:26:08;;;;;;;;;;;4.60;99.90;;;;;;5145181;27;20398;-38
2022/11/21 12:28:43;;;;;;;;;;;4.60;99.90;;;;;;5147203;27;19915;-39
2022/11/21 12:31:17;;;;;;;;;;;4.60;99.90;;;;;;5145047;27;19919;-40
2022/11/21 12:33:49;;;;;;;;;;;4.60;99.90;;;;;;5153713;27;19911;-38
2022/11/21 12:36:31;;;;;;;;;;;4.70;99.90;;;;;;5154192;27;20391;-39
2022/11/21 12:39:00;;;;;;;;;;;4.60;99.90;;;;;;5137317;27;20343;-39
2022/11/21 12:44:32;;;;;;;;;;;4.70;99.90;;;;;;5146797;27;19956;-39
2022/11/21 12:47:10;;;;;;;;;;;4.70;99.90;;;;;;5149025;27;19911;-40
2022/11/21 12:55:36;;;;;;;;;;;4.60;99.90;;;;;;5141389;27;19914;-38
2022/11/21 12:58:15;;;;;;;;;;;4.70;99.90;;;;;;5138907;27;19911;-39
2022/11/21 13:00:47;;;;;;;;;;;4.60;99.90;;;;;;5155482;27;20039;-38
2022/11/21 13:03:26;;;;;;;;;;;4.70;99.90;;;;;;5152206;27;20014;-38
2022/11/21 13:05:53;;;;;;;;;;;4.70;99.90;;;;;;5155508;27;19919;-38
2022/11/21 13:08:24;;;;;;;;;;;4.70;99.90;;;;;;5157411;27;19986;-40
2022/11/21 13:10:50;;;;;;;;;;;4.70;99.90;;;;;;5156687;27;20161;-39
2022/11/21 13:13:27;;;;;;;;;;;4.80;99.90;;;;;;5157089;27;19914;-39
2022/11/21 13:16:07;;;;;;;;;;;4.80;99.90;;;;;;5146109;27;19911;-40
2022/11/21 13:18:41;;;;;;;;;;;4.80;99.90;;;;;;5157752;27;20327;-39
2022/11/21 13:21:27;;;;;;;;;;;4.70;99.90;;;;;;5152470;27;19915;-39
2022/11/21 13:23:52;;;;;;;;;;;4.70;99.90;;;;;;5135917;27;20461;-38
2022/11/21 13:26:24;;;;;;;;;;;4.70;99.90;;;;;;5147812;27;20068;-38
2022/11/21 13:28:49;;;;;;;;;;;4.60;99.90;;;;;;5157078;27;19911;-37
2022/11/21 13:31:25;;;;;;;;;;;4.60;99.90;;;;;;5157004;27;19919;-39
2022/11/21 13:33:51;;;;;;;;;;;4.60;99.90;;;;;;5158357;27;19907;-38
2022/11/21 13:36:28;;;;;;;;;;;4.60;99.90;;;;;;5158169;27;20281;-38
2022/11/21 13:38:54;;;;;;;;;;;4.60;99.90;;;;;;5156066;27;19914;-38
2022/11/21 13:44:31;;;;;;;;;;;4.60;99.90;;;;;;5157207;27;19918;-41
2022/11/21 13:46:58;;;;;;;;;;;4.60;99.90;;;;;;5158051;27;19907;-39
2022/11/21 13:49:28;;;;;;;;;;;4.50;99.90;;;;;;5157219;27;20002;-39
2022/11/21 13:51:54;;;;;;;;;;;4.50;99.90;;;;;;5157411;27;19907;-38
2022/11/21 13:54:28;;;;;;;;;;;4.50;99.90;;;;;;5157903;27;20318;-40
2022/11/21 13:57:24;;;;;;;;;;;4.50;99.90;;;;;;5157864;27;19923;-38
2022/11/21 13:59:58;;;;;;;;;;;4.50;99.90;;;;;;5152530;27;19934;-38
2022/11/21 14:02:42;;;;;;;;;;;4.40;99.90;;;;;;5157704;27;20160;-38
2022/11/21 14:05:26;;;;;;;;;;;4.40;99.90;;;;;;5157497;27;20296;-41
2022/11/21 14:07:52;;;;;;;;;;;4.40;99.90;;;;;;5157500;27;19907;-39
2022/11/21 14:10:24;;;;;;;;;;;4.40;99.90;;;;;;5157186;27;19919;-38
2022/11/21 14:12:50;;;;;;;;;;;4.40;99.90;;;;;;5155868;27;20322;-38
2022/11/21 14:15:22;;;;;;;;;;;4.40;99.90;;;;;;5157412;27;19957;-40
2022/11/21 14:17:57;;;;;;;;;;;4.30;99.90;;;;;;5157508;27;19915;-39
2022/11/21 14:20:48;;;;;;;;;;;4.40;99.90;;;;;;5156539;27;19917;-42
2022/11/21 14:23:20;;;;;;;;;;;4.30;99.90;;;;;;5157196;27;19907;-40
2022/11/21 14:25:51;;;;;;;;;;;4.30;99.90;;;;;;5156243;27;19907;-38
2022/11/21 14:28:22;;;;;;;;;;;4.30;99.90;;;;;;5155146;27;19930;-42
2022/11/21 14:30:47;;;;;;;;;;;4.30;99.90;;;;;;5156261;27;19936;-38
2022/11/21 14:33:19;;;;;;;;;;;4.30;99.90;;;;;;5155960;27;19907;-40
2022/11/21 14:36:05;;;;;;;;;;;4.30;99.90;;;;;;5154823;27;19912;-39
2022/11/21 14:38:54;;;;;;;;;;;4.20;99.90;;;;;;5154831;27;19994;-38
2022/11/21 14:41:26;;;;;;;;;;;4.30;99.90;;;;;;5140512;27;19911;-38
2022/11/21 14:43:57;;;;;;;;;;;4.30;99.90;;;;;;5155406;27;19954;-38
2022/11/21 14:46:24;;;;;;;;;;;4.30;99.90;;;;;;5155356;27;19918;-39
2022/11/21 14:48:51;;;;;;;;;;;4.30;99.90;;;;;;5154428;27;19911;-40
2022/11/21 14:51:18;;;;;;;;;;;4.20;99.90;;;;;;5155969;27;20430;-38
2022/11/21 14:53:45;;;;;;;;;;;4.20;99.90;;;;;;5147201;27;19911;-39
2022/11/21 14:56:19;;;;;;;;;;;4.20;99.90;;;;;;5145087;27;19959;-40
2022/11/21 14:58:44;;;;;;;;;;;4.20;99.90;;;;;;5146921;27;20365;-38
2022/11/21 15:01:18;;;;;;;;;;;4.30;99.90;;;;;;5147721;27;19922;-39
2022/11/21 15:04:04;;;;;;;;;;;4.30;99.90;;;;;;5128206;27;20505;-39
2022/11/21 15:06:32;;;;;;;;;;;4.20;99.90;;;;;;5152988;27;19964;-39
2022/11/21 15:08:58;;;;;;;;;;;4.20;99.90;;;;;;5140698;27;19911;-39
2022/11/21 15:11:28;;;;;;;;;;;4.20;99.90;;;;;;5154414;27;19918;-38